Time;durP1;ratioP1;P1;durP2;ratioP2;P2;SDS_P1;SDS_P2;PMS_P1;PMS_P2;Temp;Humidity;BMP_temperature;BMP_pressure;BME280_temperature;BME280_humidity;BME280_pressure;Samples;Min_cycle;Max_cycle;Signal;HPM_P1;HPM_P2
2022/06/20 00:02:02;;;;;;;8.77;5.40;;;23.50;1.00;;;;;;5050072;28;20450;-55
2022/06/20 00:04:28;;;;;;;11.77;6.20;;;23.20;1.00;;;;;;5048086;28;20449;-55
2022/06/20 00:06:54;;;;;;;12.93;5.63;;;23.10;1.00;;;;;;5049420;28;20466;-52
2022/06/20 00:09:20;;;;;;;8.87;5.93;;;23.10;1.00;;;;;;5049663;28;20176;-55
2022/06/20 00:11:49;;;;;;;10.73;5.73;;;23.10;1.00;;;;;;5049839;28;20190;-53
2022/06/20 00:14:17;;;;;;;7.30;5.57;;;23.10;1.00;;;;;;5049842;28;20183;-55
2022/06/20 00:16:44;;;;;;;9.83;6.20;;;23.10;1.00;;;;;;5050977;28;21029;-55
2022/06/20 00:19:10;;;;;;;8.17;5.83;;;23.20;1.00;;;;;;5055150;28;20484;-55
2022/06/20 00:21:37;;;;;;;7.30;4.73;;;23.50;1.00;;;;;;5049419;28;20990;-54
2022/06/20 00:24:03;;;;;;;8.27;5.40;;;23.50;1.00;;;;;;5049268;28;20834;-54
2022/06/20 00:26:29;;;;;;;8.93;4.97;;;23.60;1.00;;;;;;5049311;28;20850;-54
2022/06/20 00:28:56;;;;;;;6.40;4.90;;;23.60;1.00;;;;;;5051339;28;20430;-53
2022/06/20 00:31:22;;;;;;;8.43;5.20;;;23.50;1.00;;;;;;5054068;28;20183;-54
2022/06/20 00:33:48;;;;;;;7.93;5.50;;;23.60;1.00;;;;;;5049113;28;20525;-54
2022/06/20 00:36:17;;;;;;;8.27;4.93;;;23.60;1.00;;;;;;5050594;28;20646;-52
2022/06/20 00:38:44;;;;;;;6.60;5.23;;;23.60;1.00;;;;;;5049672;28;20461;-55
2022/06/20 00:41:26;;;;;;;7.67;4.93;;;23.60;1.00;;;;;;5051602;28;20450;-53
2022/06/20 00:43:53;;;;;;;7.20;5.27;;;;;;;;;;5050560;28;20517;-54
2022/06/20 00:46:38;;;;;;;6.63;4.90;;;23.70;1.00;;;;;;5048805;28;20466;-53
2022/06/20 00:49:12;;;;;;;8.10;5.70;;;23.50;1.00;;;;;;5054674;28;20871;-55
2022/06/20 00:51:47;;;;;;;8.93;4.60;;;23.00;1.00;;;;;;5053348;28;20522;-55
2022/06/20 00:54:42;;;;;;;7.50;4.60;;;23.00;1.00;;;;;;5049217;28;20441;-55
2022/06/20 00:57:28;;;;;;;9.77;5.20;;;22.80;1.00;;;;;;5049462;28;20816;-54
2022/06/20 01:00:22;;;;;;;8.20;5.50;;;22.70;1.00;;;;;;5048828;28;20452;-55
2022/06/20 01:02:51;;;;;;;10.80;5.37;;;22.50;1.00;;;;;;5048350;28;20453;-54
2022/06/20 01:05:29;;;;;;;6.30;5.63;;;22.40;1.00;;;;;;5054098;28;20529;-53
2022/06/20 01:07:57;;;;;;;10.03;6.40;;;22.10;1.00;;;;;;5048935;28;20545;-55
2022/06/20 01:10:27;;;;;;;6.77;5.50;;;22.00;1.00;;;;;;5047862;28;20785;-52
2022/06/20 01:13:01;;;;;;;6.40;5.00;;;21.90;1.00;;;;;;5048887;28;20434;-54
2022/06/20 01:15:36;;;;;;;6.70;5.20;;;22.10;1.00;;;;;;5048530;28;20446;-56
2022/06/20 01:18:05;;;;;;;8.50;5.70;;;22.10;1.00;;;;;;5048919;28;20435;-53
2022/06/20 01:20:33;;;;;;;6.50;5.30;;;22.00;1.00;;;;;;5048022;28;20434;-53
2022/06/20 01:23:40;;;;;;;7.10;4.73;;;21.90;1.00;;;;;;5048946;28;20439;-53
2022/06/20 01:26:36;;;;;;;8.23;4.87;;;22.00;1.00;;;;;;5017235;28;20842;-54
2022/06/20 01:29:04;;;;;;;6.93;5.33;;;22.10;1.00;;;;;;5048944;28;20438;-53
2022/06/20 01:31:35;;;;;;;8.67;5.27;;;22.20;1.00;;;;;;5048568;28;20491;-54
2022/06/20 01:34:01;;;;;;;11.87;6.70;;;22.20;1.00;;;;;;5051366;28;20483;-53
2022/06/20 01:39:19;;;;;;;5.77;5.10;;;22.50;1.00;;;;;;5052363;28;20512;-54
2022/06/20 01:44:36;;;;;;;8.73;5.40;;;22.50;1.00;;;;;;5052400;28;20465;-55
2022/06/20 01:47:02;;;;;;;9.77;5.73;;;22.50;1.00;;;;;;5052217;28;20478;-53
2022/06/20 01:49:30;;;;;;;7.40;5.40;;;22.50;1.00;;;;;;5052267;28;20536;-55
2022/06/20 01:52:12;;;;;;;6.20;5.10;;;22.60;1.00;;;;;;5051074;28;20436;-56
2022/06/20 01:54:46;;;;;;;8.03;5.20;;;22.60;1.00;;;;;;5052412;28;20464;-55
2022/06/20 01:57:13;;;;;;;7.07;5.80;;;22.60;1.00;;;;;;5052426;28;20486;-54
2022/06/20 01:59:57;;;;;;;9.77;4.93;;;22.60;1.00;;;;;;5054065;28;20464;-54
2022/06/20 02:02:23;;;;;;;11.00;5.57;;;22.60;1.00;;;;;;5054809;28;20453;-54
2022/06/20 02:04:50;;;;;;;6.87;5.17;;;22.60;1.00;;;;;;5051982;28;20454;-54
2022/06/20 02:07:16;;;;;;;6.20;5.20;;;;;;;;;;5051973;28;20560;-56
2022/06/20 02:09:43;;;;;;;7.27;5.53;;;22.70;1.00;;;;;;5051539;28;20899;-56
2022/06/20 02:12:10;;;;;;;9.97;5.93;;;22.70;1.00;;;;;;5048467;28;20454;-53
2022/06/20 02:14:42;;;;;;;9.67;5.13;;;22.80;1.00;;;;;;5051445;28;20441;-54
2022/06/20 02:17:22;;;;;;;7.47;6.13;;;22.80;1.00;;;;;;5052033;28;20473;-55
2022/06/20 02:19:53;;;;;;;7.30;5.73;;;23.00;1.00;;;;;;5053177;28;20446;-53
2022/06/20 02:22:20;;;;;;;9.97;5.43;;;22.90;1.00;;;;;;5059178;28;20454;-54
2022/06/20 02:24:50;;;;;;;7.43;5.23;;;22.90;1.00;;;;;;5061049;28;21256;-54
2022/06/20 02:27:28;;;;;;;6.73;4.93;;;23.00;1.00;;;;;;5051758;28;20474;-54
2022/06/20 02:29:54;;;;;;;10.43;6.20;;;22.90;1.00;;;;;;5051920;28;20784;-55
2022/06/20 02:32:26;;;;;;;10.40;5.60;;;23.00;1.00;;;;;;5053794;28;20445;-53
2022/06/20 02:34:53;;;;;;;8.20;5.70;;;;;;;;;;5051190;28;20438;-54
2022/06/20 02:37:24;;;;;;;6.67;5.27;;;23.10;1.00;;;;;;5051968;28;20525;-55
2022/06/20 02:39:58;;;;;;;6.57;5.87;;;23.10;1.00;;;;;;5051990;28;20449;-53
2022/06/20 02:42:37;;;;;;;8.20;5.63;;;23.10;1.00;;;;;;5052257;28;20872;-54
2022/06/20 02:45:07;;;;;;;7.30;6.40;;;23.20;1.00;;;;;;5056049;28;20434;-54
2022/06/20 02:47:34;;;;;;;7.47;6.03;;;23.30;1.00;;;;;;5054411;28;21024;-55
2022/06/20 02:50:02;;;;;;;8.33;5.63;;;23.30;1.00;;;;;;5055539;28;20441;-55
2022/06/20 02:52:37;;;;;;;9.80;5.73;;;23.40;1.00;;;;;;5048420;28;20430;-55
2022/06/20 02:55:05;;;;;;;6.63;5.10;;;23.40;1.00;;;;;;5050840;28;20484;-56
2022/06/20 02:57:38;;;;;;;7.87;5.93;;;23.40;1.00;;;;;;5051246;28;20529;-55
2022/06/20 03:00:08;;;;;;;8.90;6.40;;;23.20;1.00;;;;;;5051545;28;20450;-54
2022/06/20 03:02:37;;;;;;;8.97;6.77;;;23.20;1.00;;;;;;5059098;28;20450;-53
2022/06/20 03:05:03;;;;;;;6.03;5.53;;;23.20;1.00;;;;;;5051159;28;20545;-53
2022/06/20 03:07:36;;;;;;;6.47;5.87;;;23.10;1.00;;;;;;5050739;28;21184;-54
2022/06/20 03:10:27;;;;;;;6.13;5.43;;;23.10;1.00;;;;;;5050835;28;20981;-55
2022/06/20 03:12:54;;;;;;;7.10;6.30;;;23.00;1.00;;;;;;5047678;28;20820;-54
2022/06/20 03:15:20;;;;;;;8.10;6.00;;;22.90;1.00;;;;;;5053794;28;20532;-54
2022/06/20 03:17:49;;;;;;;8.57;6.00;;;22.80;1.00;;;;;;5050919;28;20469;-52
2022/06/20 03:20:17;;;;;;;7.97;5.93;;;22.80;1.00;;;;;;5054850;28;20447;-55
2022/06/20 03:23:08;;;;;;;7.57;5.47;;;22.70;1.00;;;;;;5050884;28;20987;-53
2022/06/20 03:25:37;;;;;;;9.77;5.90;;;22.80;1.00;;;;;;5044697;28;20451;-56
2022/06/20 03:28:03;;;;;;;6.53;5.60;;;22.60;1.00;;;;;;5046941;28;20478;-54
2022/06/20 03:30:31;;;;;;;7.03;6.40;;;22.60;1.00;;;;;;5064657;28;20469;-55
2022/06/20 03:32:59;;;;;;;9.27;5.90;;;22.50;1.00;;;;;;5050451;28;20193;-55
2022/06/20 03:35:30;;;;;;;10.43;6.00;;;22.20;1.00;;;;;;5049026;28;20453;-54
2022/06/20 03:37:57;;;;;;;8.80;5.73;;;22.10;1.00;;;;;;5050224;28;20587;-55
2022/06/20 03:40:23;;;;;;;7.20;5.80;;;22.20;1.00;;;;;;5047507;28;20531;-54
2022/06/20 03:42:49;;;;;;;7.30;5.80;;;22.10;1.00;;;;;;5054332;28;20446;-53
2022/06/20 03:45:15;;;;;;;6.40;5.17;;;22.10;1.00;;;;;;5052969;28;20262;-54
2022/06/20 03:47:53;;;;;;;7.37;6.10;;;22.20;1.00;;;;;;5063121;28;20539;-56
2022/06/20 03:50:25;;;;;;;7.30;6.57;;;22.00;1.00;;;;;;5049775;28;21863;-53
2022/06/20 03:53:14;;;;;;;9.50;6.20;;;21.80;1.00;;;;;;5050251;28;20457;-55
2022/06/20 03:56:01;;;;;;;8.70;6.23;;;21.70;1.00;;;;;;5048611;28;20962;-53
2022/06/20 03:58:40;;;;;;;7.93;6.50;;;21.80;1.00;;;;;;5048660;28;20445;-55
2022/06/20 04:01:33;;;;;;;7.23;5.93;;;21.80;1.00;;;;;;5049845;28;20438;-54
2022/06/20 04:04:16;;;;;;;10.50;6.47;;;21.80;1.00;;;;;;5049809;28;20491;-54
2022/06/20 04:06:59;;;;;;;9.13;6.47;;;21.70;1.00;;;;;;5048401;28;20743;-55
2022/06/20 04:12:43;;;;;;;9.43;6.73;;;21.80;1.00;;;;;;5049486;28;20441;-54
2022/06/20 04:15:14;;;;;;;8.33;6.40;;;21.80;1.00;;;;;;5049396;28;20441;-54
2022/06/20 04:20:34;;;;;;;11.77;6.40;;;21.90;1.00;;;;;;5049957;28;20954;-56
2022/06/20 04:23:05;;;;;;;9.03;6.07;;;21.90;1.00;;;;;;5049177;28;20792;-53
2022/06/20 04:25:34;;;;;;;10.60;6.50;;;21.90;1.00;;;;;;5049256;28;21009;-54
2022/06/20 04:28:14;;;;;;;9.33;6.10;;;22.00;1.00;;;;;;5049681;28;20448;-55
2022/06/20 04:30:46;;;;;;;9.13;6.37;;;22.00;1.00;;;;;;5051015;28;20414;-53
2022/06/20 04:33:27;;;;;;;7.60;6.50;;;22.10;1.00;;;;;;5053047;28;20431;-55
2022/06/20 04:36:32;;;;;;;7.47;5.63;;;22.00;1.00;;;;;;5055164;28;20438;-53
2022/06/20 04:39:20;;;;;;;10.43;5.90;;;22.30;1.00;;;;;;5048500;28;20956;-56
2022/06/20 04:41:55;;;;;;;8.30;6.57;;;22.40;1.00;;;;;;5047868;28;20442;-55
2022/06/20 04:44:59;;;;;;;9.20;6.93;;;22.50;1.00;;;;;;5048899;28;20951;-56
2022/06/20 04:47:38;;;;;;;7.90;6.37;;;22.60;1.00;;;;;;5048757;28;20485;-54
2022/06/20 04:50:05;;;;;;;10.80;6.67;;;22.70;1.00;;;;;;5054551;28;20522;-55
2022/06/20 04:52:31;;;;;;;7.97;5.93;;;23.10;1.00;;;;;;5051440;28;20441;-55
2022/06/20 04:54:57;;;;;;;7.27;5.67;;;23.10;1.00;;;;;;5049253;28;20431;-56
2022/06/20 04:57:26;;;;;;;9.57;6.30;;;23.10;1.00;;;;;;5052914;28;20370;-53
2022/06/20 04:59:58;;;;;;;9.47;5.90;;;22.60;1.00;;;;;;5048816;28;20526;-53
2022/06/20 05:02:25;;;;;;;7.13;6.43;;;22.60;1.00;;;;;;5050354;28;20449;-56
2022/06/20 05:04:54;;;;;;;7.97;6.63;;;22.50;1.00;;;;;;5049768;28;20454;-55
2022/06/20 05:07:32;;;;;;;6.47;5.80;;;22.30;1.00;;;;;;5048858;28;20990;-53
2022/06/20 05:10:19;;;;;;;12.03;6.80;;;21.90;1.00;;;;;;5057104;28;20426;-54
2022/06/20 05:12:53;;;;;;;11.90;6.80;;;21.90;1.00;;;;;;5052050;28;20440;-53
2022/06/20 05:15:40;;;;;;;10.10;5.77;;;22.10;1.00;;;;;;5052998;28;20546;-55
2022/06/20 05:18:31;;;;;;;10.23;6.63;;;22.30;1.00;;;;;;5048773;28;20453;-55
2022/06/20 05:21:08;;;;;;;6.47;5.70;;;22.50;1.00;;;;;;5053024;28;20497;-54
2022/06/20 05:23:43;;;;;;;7.97;6.40;;;22.80;1.00;;;;;;5052401;28;20500;-54
2022/06/20 05:26:36;;;;;;;7.70;5.70;;;23.00;1.00;;;;;;5052977;28;20458;-56
2022/06/20 05:29:06;;;;;;;8.00;5.73;;;23.10;1.00;;;;;;5052662;28;20639;-54
2022/06/20 05:31:39;;;;;;;8.80;6.50;;;23.30;1.00;;;;;;5052103;28;20566;-55
2022/06/20 05:34:20;;;;;;;5.93;5.40;;;24.10;1.00;;;;;;5055084;28;21255;-55
2022/06/20 05:37:30;;;;;;;10.30;6.93;;;24.40;1.00;;;;;;5055870;28;20445;-54
2022/06/20 05:40:04;;;;;;;8.57;5.70;;;24.50;1.00;;;;;;5038838;28;20963;-52
2022/06/20 05:42:29;;;;;;;6.23;5.63;;;24.80;1.00;;;;;;5052118;28;20437;-54
2022/06/20 05:44:56;;;;;;;8.60;6.23;;;24.70;1.00;;;;;;5051891;28;20965;-54
2022/06/20 05:47:24;;;;;;;9.93;6.73;;;24.80;1.00;;;;;;5052535;28;20226;-53
2022/06/20 05:50:05;;;;;;;8.73;6.30;;;24.50;1.00;;;;;;5052682;28;20445;-54
2022/06/20 05:52:32;;;;;;;8.73;6.90;;;24.50;1.00;;;;;;5052414;28;21057;-55
2022/06/20 05:55:11;;;;;;;8.83;6.83;;;24.40;1.00;;;;;;5052536;28;20441;-54
2022/06/20 05:57:40;;;;;;;8.70;7.77;;;24.50;1.00;;;;;;5051679;28;20437;-55
2022/06/20 06:00:12;;;;;;;12.77;7.40;;;24.60;1.00;;;;;;5052184;28;21010;-52
2022/06/20 06:02:50;;;;;;;9.30;7.00;;;24.70;1.00;;;;;;5051424;28;20449;-55
2022/06/20 06:05:16;;;;;;;11.57;7.67;;;;;;;;;;5052215;28;20473;-54
2022/06/20 06:08:02;;;;;;;8.63;6.93;;;24.60;1.00;;;;;;5058147;28;20972;-55
2022/06/20 06:10:48;;;;;;;13.73;7.50;;;24.60;1.00;;;;;;5054408;28;20989;-53
2022/06/20 06:13:36;;;;;;;11.53;6.67;;;24.60;1.00;;;;;;5052155;28;20470;-55
2022/06/20 06:19:32;;;;;;;9.73;7.00;;;24.30;1.00;;;;;;5047268;28;20438;-56
2022/06/20 06:22:01;;;;;;;9.30;7.13;;;23.70;1.00;;;;;;5050897;28;20469;-54
2022/06/20 06:24:29;;;;;;;9.70;7.43;;;23.40;1.00;;;;;;5051111;28;20437;-54
2022/06/20 06:26:59;;;;;;;8.90;5.93;;;23.40;1.00;;;;;;5054327;28;20461;-55
2022/06/20 06:30:04;;;;;;;6.93;5.90;;;23.60;1.00;;;;;;5053149;28;20960;-53
2022/06/20 06:32:43;;;;;;;8.33;6.37;;;23.90;1.00;;;;;;5050212;28;20430;-53
2022/06/20 06:35:11;;;;;;;16.10;5.57;;;24.10;1.00;;;;;;5051378;28;20434;-56
2022/06/20 06:37:54;;;;;;;6.93;5.10;;;24.00;1.00;;;;;;5051288;28;20456;-55
2022/06/20 06:40:46;;;;;;;9.07;5.20;;;23.60;1.00;;;;;;5051361;28;20959;-55
2022/06/20 06:43:28;;;;;;;9.43;6.03;;;23.30;1.00;;;;;;5051112;28;20537;-53
2022/06/20 06:45:57;;;;;;;17.03;6.40;;;23.30;1.00;;;;;;5049123;28;20466;-54
2022/06/20 06:48:27;;;;;;;6.83;6.10;;;;;;;;;;5051592;28;20438;-55
2022/06/20 06:51:26;;;;;;;10.07;7.03;;;22.60;1.00;;;;;;5051151;28;20508;-55
2022/06/20 06:53:52;;;;;;;8.20;6.17;;;;;;;;;;5050990;28;20973;-54
2022/06/20 06:56:48;;;;;;;7.07;6.37;;;22.60;1.00;;;;;;5050771;28;20462;-55
2022/06/20 06:59:35;;;;;;;9.50;6.70;;;23.10;1.00;;;;;;5048731;28;20485;-55
2022/06/20 07:02:03;;;;;;;8.03;6.53;;;23.60;1.00;;;;;;5058131;28;20916;-54
2022/06/20 07:04:35;;;;;;;8.60;6.73;;;23.60;1.00;;;;;;5061167;28;20492;-57
2022/06/20 07:07:18;;;;;;;12.27;7.70;;;23.30;1.00;;;;;;5056652;28;20506;-55
2022/06/20 07:09:48;;;;;;;9.37;6.97;;;23.30;1.00;;;;;;5056752;28;20442;-52
2022/06/20 07:12:51;;;;;;;8.90;8.00;;;23.20;1.00;;;;;;5051284;28;20434;-54
2022/06/20 07:15:22;;;;;;;11.83;8.67;;;23.00;1.00;;;;;;5050229;28;20450;-55
2022/06/20 07:17:50;;;;;;;9.97;8.50;;;;;;;;;;5050466;28;20446;-53
2022/06/20 07:20:22;;;;;;;10.53;9.13;;;22.70;1.00;;;;;;5050044;28;20950;-56
2022/06/20 07:22:49;;;;;;;12.33;8.77;;;22.60;1.00;;;;;;5054871;28;20527;-53
2022/06/20 07:25:27;;;;;;;10.10;9.10;;;22.30;1.00;;;;;;5050500;28;20446;-54
2022/06/20 07:28:00;;;;;;;13.33;10.33;;;22.00;1.00;;;;;;5050357;28;20462;-53
2022/06/20 07:30:32;;;;;;;10.80;9.70;;;21.90;1.00;;;;;;5054018;28;20446;-54
2022/06/20 07:33:22;;;;;;;10.40;9.00;;;21.80;1.00;;;;;;5050141;28;20533;-54
2022/06/20 07:35:53;;;;;;;13.30;9.83;;;22.20;1.00;;;;;;5055457;28;20437;-54
2022/06/20 07:38:23;;;;;;;10.17;8.87;;;22.30;1.00;;;;;;5049426;28;20473;-55
2022/06/20 07:40:56;;;;;;;11.70;9.50;;;22.80;1.00;;;;;;5050227;28;20446;-56
2022/06/20 07:43:38;;;;;;;9.67;8.53;;;22.90;1.00;;;;;;5049246;28;20894;-53
2022/06/20 07:46:31;;;;;;;9.90;8.90;;;23.50;1.00;;;;;;5049768;28;20470;-55
2022/06/20 07:49:05;;;;;;;10.13;7.70;;;23.50;1.00;;;;;;5049983;28;20470;-53
2022/06/20 07:51:36;;;;;;;9.67;8.67;;;23.70;1.00;;;;;;5048681;28;20508;-53
2022/06/20 07:54:10;;;;;;;9.33;8.20;;;24.00;1.00;;;;;;5050694;28;20438;-55
2022/06/20 07:56:54;;;;;;;10.63;9.63;;;24.50;1.00;;;;;;5049267;28;20433;-54
2022/06/20 07:59:35;;;;;;;11.40;8.60;;;25.20;1.00;;;;;;5057453;28;20993;-55
2022/06/20 08:02:14;;;;;;;8.83;7.93;;;25.20;1.00;;;;;;5047011;28;20442;-54
2022/06/20 08:04:41;;;;;;;10.80;8.40;;;25.30;1.00;;;;;;5048874;28;20446;-54
2022/06/20 08:07:22;;;;;;;10.97;8.83;;;25.20;1.00;;;;;;5049585;28;20493;-54
2022/06/20 08:10:13;;;;;;;9.07;8.23;;;25.30;1.00;;;;;;5048950;28;20526;-53
2022/06/20 08:12:54;;;;;;;11.13;7.90;;;25.30;1.00;;;;;;5049312;28;20434;-54
2022/06/20 08:15:28;;;;;;;10.67;8.13;;;25.00;1.00;;;;;;5049845;28;20986;-55
2022/06/20 08:17:53;;;;;;;9.67;8.70;;;25.00;1.00;;;;;;5049574;28;20443;-54
2022/06/20 08:20:21;;;;;;;10.00;8.17;;;25.40;1.00;;;;;;5052842;28;20508;-55
2022/06/20 08:22:58;;;;;;;9.30;8.40;;;25.60;1.00;;;;;;5049605;28;20211;-54
2022/06/20 08:25:36;;;;;;;10.03;9.00;;;25.70;1.00;;;;;;5048110;28;20478;-54
2022/06/20 08:28:20;;;;;;;10.00;8.97;;;25.90;1.00;;;;;;5048255;28;20469;-53
2022/06/20 08:31:03;;;;;;;8.83;7.93;;;26.10;1.00;;;;;;5050575;28;20430;-54
2022/06/20 08:33:38;;;;;;;10.20;8.23;;;26.20;1.00;;;;;;5049744;28;20959;-53
2022/06/20 08:36:30;;;;;;;8.97;7.70;;;26.50;1.00;;;;;;5049056;28;20434;-54
2022/06/20 08:39:38;;;;;;;10.00;8.07;;;27.00;1.00;;;;;;5048034;28;20466;-53
2022/06/20 08:42:32;;;;;;;8.53;7.73;;;27.50;1.00;;;;;;5026613;28;20603;-55
2022/06/20 08:45:12;;;;;;;8.67;7.70;;;27.90;1.00;;;;;;5048417;28;20924;-55
2022/06/20 08:48:10;;;;;;;8.53;7.73;;;27.90;1.00;;;;;;5049033;28;20524;-55
2022/06/20 08:50:42;;;;;;;8.53;7.73;;;28.00;1.00;;;;;;5047250;28;20761;-55
2022/06/20 08:53:48;;;;;;;8.60;7.90;;;28.00;1.00;;;;;;5046632;28;20450;-55
2022/06/20 08:56:32;;;;;;;8.10;7.40;;;28.20;1.00;;;;;;5049433;28;20961;-55
2022/06/20 08:58:57;;;;;;;11.50;7.87;;;28.40;1.00;;;;;;5049103;28;20521;-54
2022/06/20 09:01:31;;;;;;;9.87;8.80;;;28.40;1.00;;;;;;5048968;28;20525;-52
2022/06/20 09:04:09;;;;;;;9.33;7.83;;;28.60;1.00;;;;;;5049385;28;20199;-54
2022/06/20 09:07:06;;;;;;;8.93;8.03;;;28.50;1.00;;;;;;5049492;28;20465;-54
2022/06/20 09:09:37;;;;;;;8.27;7.40;;;28.50;1.00;;;;;;5048411;28;20431;-55
2022/06/20 09:12:31;;;;;;;9.40;8.10;;;28.50;1.00;;;;;;5049149;28;20434;-55
2022/06/20 09:15:15;;;;;;;11.43;9.07;;;28.80;1.00;;;;;;5048860;28;20434;-53
2022/06/20 09:17:49;;;;;;;11.40;8.70;;;28.70;1.00;;;;;;5049369;28;20470;-54
2022/06/20 09:20:26;;;;;;;9.03;8.10;;;28.00;1.00;;;;;;5047995;28;20472;-53
2022/06/20 09:23:20;;;;;;;8.40;7.60;;;28.40;1.00;;;;;;5048872;28;20446;-54
2022/06/20 09:26:28;;;;;;;9.80;8.20;;;29.10;1.00;;;;;;5048837;28;20439;-55
2022/06/20 09:29:09;;;;;;;8.83;8.03;;;29.60;1.00;;;;;;5042991;28;20457;-54
2022/06/20 09:31:53;;;;;;;9.00;7.57;;;29.40;1.00;;;;;;5048213;28;20438;-54
2022/06/20 09:34:56;;;;;;;15.30;8.23;;;29.50;1.00;;;;;;5047322;28;20446;-53
2022/06/20 09:37:28;;;;;;;9.70;8.63;;;;;;;;;;5046233;28;20442;-52
2022/06/20 09:40:26;;;;;;;9.57;8.60;;;28.80;1.00;;;;;;5044632;28;20960;-53
2022/06/20 09:43:02;;;;;;;13.30;8.83;;;28.10;1.00;;;;;;5048879;28;20438;-54
2022/06/20 09:45:50;;;;;;;10.60;8.30;;;27.10;1.00;;;;;;5048520;28;20500;-55
2022/06/20 09:48:22;;;;;;;9.27;8.30;;;27.10;1.00;;;;;;5049683;28;20473;-54
2022/06/20 09:51:30;;;;;;;9.57;8.57;;;26.70;1.00;;;;;;5049439;28;20449;-53
2022/06/20 09:54:13;;;;;;;10.93;7.87;;;25.90;1.00;;;;;;5046409;28;20559;-52
2022/06/20 09:56:48;;;;;;;9.87;8.83;;;25.90;1.00;;;;;;5051989;28;20457;-55
2022/06/20 09:59:25;;;;;;;10.03;8.37;;;25.90;1.00;;;;;;5052067;28;20452;-54
2022/06/20 10:02:03;;;;;;;9.43;8.47;;;25.60;1.00;;;;;;5052167;28;20464;-54
2022/06/20 10:04:41;;;;;;;9.53;8.53;;;25.90;1.00;;;;;;5051842;28;20485;-54
2022/06/20 10:07:13;;;;;;;9.47;8.47;;;25.90;1.00;;;;;;5052226;28;20518;-55
2022/06/20 10:10:05;;;;;;;11.17;8.10;;;26.10;1.00;;;;;;5050534;28;20435;-53
2022/06/20 10:12:39;;;;;;;7.67;7.00;;;26.20;1.00;;;;;;5050188;28;20528;-54
2022/06/20 10:15:15;;;;;;;8.87;7.70;;;26.10;1.00;;;;;;5047977;28;20495;-54
2022/06/20 10:17:53;;;;;;;13.77;10.07;;;25.40;1.00;;;;;;5051999;28;20579;-55
2022/06/20 10:20:33;;;;;;;10.60;9.33;;;25.00;1.00;;;;;;5051841;28;20446;-56
2022/06/20 10:23:13;;;;;;;10.47;7.93;;;24.90;1.00;;;;;;5052430;28;20441;-54
2022/06/20 10:25:59;;;;;;;7.73;7.03;;;24.50;1.00;;;;;;5051512;28;20487;-55
2022/06/20 10:28:30;;;;;;;13.63;9.00;;;24.40;1.00;;;;;;5051345;28;20446;-55
2022/06/20 10:31:28;;;;;;;13.03;9.60;;;24.10;1.00;;;;;;5051785;28;20449;-54
2022/06/20 10:34:07;;;;;;;12.33;10.57;;;23.90;1.00;;;;;;5056158;28;20450;-57
2022/06/20 10:36:48;;;;;;;10.00;9.07;;;21.60;1.00;;;;;;5051518;28;20958;-54
2022/06/20 10:39:38;;;;;;;10.77;9.43;;;24.10;1.00;;;;;;5051935;28;20438;-55
2022/06/20 10:42:30;;;;;;;12.43;10.50;;;24.10;1.00;;;;;;5051147;28;20442;-55
2022/06/20 10:45:34;;;;;;;11.40;10.20;;;23.90;1.00;;;;;;5051042;28;20517;-54
2022/06/20 10:48:18;;;;;;;13.97;10.03;;;23.60;1.00;;;;;;5037608;28;20502;-55
2022/06/20 10:51:23;;;;;;;12.53;9.10;;;23.60;1.00;;;;;;5049807;28;20520;-55
2022/06/20 10:54:24;;;;;;;11.57;10.07;;;23.60;1.00;;;;;;5051233;28;20450;-55
2022/06/20 10:57:33;;;;;;;9.70;8.80;;;23.90;1.00;;;;;;5051344;28;20443;-55
2022/06/20 11:00:10;;;;;;;13.70;9.30;;;23.90;1.00;;;;;;5031541;28;20449;-54
2022/06/20 11:02:55;;;;;;;9.83;8.83;;;23.90;1.00;;;;;;5050976;28;20517;-55
2022/06/20 11:05:51;;;;;;;9.40;8.50;;;23.90;1.00;;;;;;5051133;28;20439;-53
2022/06/20 11:08:40;;;;;;;11.47;9.00;;;24.60;1.00;;;;;;5050589;28;20463;-54
2022/06/20 11:11:33;;;;;;;9.57;8.67;;;24.70;1.00;;;;;;5049165;28;20438;-54
2022/06/20 11:14:25;;;;;;;8.40;7.60;;;25.00;1.00;;;;;;5054669;28;20446;-53
2022/06/20 11:17:17;;;;;;;8.97;8.10;;;25.60;1.00;;;;;;5042682;28;20450;-53
2022/06/20 11:19:58;;;;;;;9.47;8.67;;;25.80;1.00;;;;;;5048043;28;20788;-55
2022/06/20 11:22:41;;;;;;;12.80;9.80;;;25.20;1.00;;;;;;5049244;28;20435;-55
2022/06/20 11:25:15;;;;;;;10.53;9.63;;;24.70;1.00;;;;;;5048452;28;20441;-55
2022/06/20 11:27:58;;;;;;;9.70;8.90;;;24.70;1.00;;;;;;5053512;28;20966;-54
2022/06/20 11:30:49;;;;;;;10.43;9.47;;;24.70;1.00;;;;;;5048492;28;20447;-55
2022/06/20 11:34:01;;;;;;;9.17;8.30;;;24.40;1.00;;;;;;5048818;28;20458;-56
2022/06/20 11:37:01;;;;;;;9.50;8.60;;;23.90;1.00;;;;;;5050253;28;20446;-54
2022/06/20 11:40:08;;;;;;;9.10;8.17;;;23.30;1.00;;;;;;5053653;28;20465;-52
2022/06/20 11:43:04;;;;;;;9.27;7.90;;;22.60;1.00;;;;;;5007621;28;20456;-56
2022/06/20 11:45:52;;;;;;;7.77;7.07;;;22.70;1.00;;;;;;5053633;28;20907;-54
2022/06/20 11:49:05;;;;;;;8.10;7.30;;;22.90;1.00;;;;;;5052758;28;20466;-54
2022/06/20 11:51:31;;;;;;;8.20;7.10;;;;;;;;;;5052743;28;20773;-55
2022/06/20 11:54:34;;;;;;;10.80;7.27;;;23.10;1.00;;;;;;5058054;28;20426;-56
2022/06/20 11:57:32;;;;;;;8.93;8.17;;;23.20;1.00;;;;;;5047952;28;20952;-55
2022/06/20 12:00:26;;;;;;;8.57;7.37;;;22.50;1.00;;;;;;5044749;28;20450;-55
2022/06/20 12:03:04;;;;;;;8.60;7.30;;;22.50;1.00;;;;;;5057061;28;20445;-55
2022/06/20 12:05:41;;;;;;;8.47;7.63;;;22.30;1.00;;;;;;5047087;28;20474;-56
2022/06/20 12:08:28;;;;;;;8.70;7.00;;;21.50;1.00;;;;;;5048456;28;20800;-55
2022/06/20 12:11:04;;;;;;;7.77;6.97;;;21.10;1.00;;;;;;5049736;28;20765;-56
2022/06/20 12:13:56;;;;;;;7.50;6.90;;;21.00;1.00;;;;;;5051814;28;21005;-54
2022/06/20 12:16:41;;;;;;;6.10;5.50;;;20.70;1.00;;;;;;5048864;28;20453;-56
2022/06/20 12:25:26;;;;;;;5.70;5.20;;;20.60;1.00;;;;;;5053122;28;20538;-55
2022/06/20 12:27:52;;;;;;;5.80;5.30;;;20.10;1.00;;;;;;5048792;28;20466;-53
2022/06/20 12:30:18;;;;;;;8.10;6.80;;;20.10;1.00;;;;;;5049275;28;20948;-53
2022/06/20 12:32:48;;;;;;;6.17;5.60;;;20.00;1.00;;;;;;5048957;28;20238;-55
2022/06/20 12:35:31;;;;;;;7.07;6.37;;;19.80;1.00;;;;;;5049556;28;20465;-55
2022/06/20 12:38:04;;;;;;;6.53;5.07;;;19.80;1.00;;;;;;5049249;28;20490;-54
2022/06/20 12:40:43;;;;;;;6.03;5.57;;;19.80;1.00;;;;;;5047871;28;20434;-55
2022/06/20 12:43:14;;;;;;;5.47;4.97;;;19.80;1.00;;;;;;5050583;28;20553;-55
2022/06/20 12:45:59;;;;;;;5.43;4.93;;;20.10;1.00;;;;;;5049195;28;20438;-53
2022/06/20 12:48:52;;;;;;;4.70;4.30;;;20.30;1.00;;;;;;5049145;28;20983;-54
2022/06/20 12:51:27;;;;;;;5.07;4.67;;;20.40;1.00;;;;;;5051023;28;20892;-53
2022/06/20 12:54:11;;;;;;;4.70;3.90;;;20.60;1.00;;;;;;5046603;28;20496;-57
2022/06/20 12:56:45;;;;;;;4.87;4.37;;;20.60;1.00;;;;;;5052992;28;20430;-56
2022/06/20 12:59:17;;;;;;;4.33;3.93;;;20.10;1.00;;;;;;5048826;28;20448;-54
2022/06/20 13:02:23;;;;;;;6.30;4.40;;;19.70;1.00;;;;;;5049244;28;20959;-54
2022/06/20 13:05:28;;;;;;;5.00;4.60;;;19.70;1.00;;;;;;5040232;28;20959;-54
2022/06/20 13:08:15;;;;;;;3.60;3.30;;;19.70;1.00;;;;;;5048821;28;20476;-56
2022/06/20 13:10:57;;;;;;;5.33;4.83;;;19.90;1.00;;;;;;5045732;28;20438;-57
2022/06/20 13:13:37;;;;;;;4.30;3.93;;;19.70;1.00;;;;;;5048513;28;20438;-54
2022/06/20 13:16:37;;;;;;;4.70;4.30;;;19.60;1.00;;;;;;5047000;28;20468;-53
2022/06/20 13:19:34;;;;;;;4.40;3.73;;;19.70;1.00;;;;;;5049465;28;20768;-52
2022/06/20 13:22:19;;;;;;;4.50;4.10;;;19.70;1.00;;;;;;5049002;28;20442;-55
2022/06/20 13:25:21;;;;;;;3.97;3.67;;;19.40;1.00;;;;;;5046157;28;20435;-56
2022/06/20 13:28:04;;;;;;;4.23;3.93;;;19.30;1.00;;;;;;5046146;28;20974;-55
2022/06/20 13:31:06;;;;;;;4.47;4.07;;;19.30;1.00;;;;;;5051564;28;20936;-54
2022/06/20 13:34:33;;;;;;;8.13;5.63;;;19.20;1.00;;;;;;5052332;28;22773;-55
2022/06/20 13:37:20;;;;;;;5.67;5.17;;;19.80;1.00;;;;;;5017362;28;20500;-54
2022/06/20 13:39:57;;;;;;;5.20;4.43;;;19.70;1.00;;;;;;5030004;28;20451;-54
2022/06/20 13:42:37;;;;;;;5.20;4.70;;;20.00;1.00;;;;;;5049794;28;21162;-54
2022/06/20 13:45:41;;;;;;;5.23;4.80;;;19.90;1.00;;;;;;5052510;28;20520;-53
2022/06/20 13:48:33;;;;;;;4.80;3.63;;;20.10;1.00;;;;;;5054498;28;20461;-55
2022/06/20 13:51:21;;;;;;;5.13;3.20;;;20.20;1.00;;;;;;5051797;28;20906;-54
2022/06/20 13:54:09;;;;;;;2.87;2.67;;;20.00;1.00;;;;;;5053645;28;20782;-56
2022/06/20 13:56:49;;;;;;;3.40;2.90;;;19.60;1.00;;;;;;5052149;28;20450;-55
2022/06/20 13:59:27;;;;;;;3.30;3.10;;;19.70;1.00;;;;;;5052139;28;20938;-55
2022/06/20 14:02:00;;;;;;;3.97;3.50;;;19.60;1.00;;;;;;5050222;28;20445;-55
2022/06/20 14:04:29;;;;;;;3.43;3.13;;;19.60;1.00;;;;;;5052214;28;20451;-55
2022/06/20 14:07:01;;;;;;;5.33;4.23;;;19.60;1.00;;;;;;5049989;28;20470;-56
2022/06/20 14:09:27;;;;;;;4.07;3.77;;;;;;;;;;5052123;28;20439;-55
2022/06/20 14:12:07;;;;;;;4.40;3.90;;;19.40;1.00;;;;;;5051911;28;20443;-55
2022/06/20 14:14:37;;;;;;;4.10;3.70;;;19.40;1.00;;;;;;5051651;28;20462;-54
2022/06/20 14:17:21;;;;;;;4.73;4.27;;;19.50;1.00;;;;;;5052047;28;20932;-54
2022/06/20 14:19:57;;;;;;;4.20;3.80;;;19.40;1.00;;;;;;5051779;28;20887;-54
2022/06/20 14:22:34;;;;;;;4.47;3.97;;;19.60;1.00;;;;;;5051871;28;20768;-57